createdAt,value
2023-09-23T00:01:16.326Z,11.30
2023-09-23T00:03:44.816Z,11.23
2023-09-23T00:06:11.555Z,11.15
2023-09-23T00:08:38.335Z,11.11
2023-09-23T00:11:05.650Z,11.02
2023-09-23T00:13:33.596Z,11.01
2023-09-23T00:16:00.533Z,11.01
2023-09-23T00:18:28.015Z,10.98
2023-09-23T00:20:56.035Z,10.98
2023-09-23T00:23:22.721Z,11.04
2023-09-23T00:25:50.407Z,11.08
2023-09-23T00:28:17.150Z,11.02
2023-09-23T00:30:47.515Z,11.05
2023-09-23T00:33:17.994Z,11.14
2023-09-23T00:39:31.949Z,11.29
2023-09-23T00:41:58.523Z,11.33
2023-09-23T00:44:25.738Z,11.37
2023-09-23T00:46:52.296Z,11.41
2023-09-23T00:49:18.897Z,11.47
2023-09-23T00:51:45.381Z,11.51
2023-09-23T00:54:15.773Z,11.56
2023-09-23T00:56:42.879Z,11.63
2023-09-23T00:59:09.505Z,11.66
2023-09-23T01:01:36.134Z,11.63
2023-09-23T01:04:02.882Z,11.64
2023-09-23T01:06:30.591Z,11.67
2023-09-23T01:08:58.568Z,11.73
2023-09-23T01:11:27.376Z,11.79
2023-09-23T01:13:54.285Z,11.83
2023-09-23T01:16:23.883Z,11.88
2023-09-23T01:18:51.249Z,11.92
2023-09-23T01:21:17.795Z,11.90
2023-09-23T01:23:47.674Z,11.85
2023-09-23T01:26:14.298Z,11.84
2023-09-23T01:28:41.167Z,11.81
2023-09-23T01:31:08.745Z,11.75
2023-09-23T01:33:35.771Z,11.67
2023-09-23T01:36:05.590Z,11.54
2023-09-23T01:38:32.767Z,11.41
2023-09-23T01:41:03.117Z,11.36
2023-09-23T01:43:30.389Z,11.33
2023-09-23T01:46:03.576Z,11.28
2023-09-23T01:48:31.089Z,11.26
2023-09-23T01:51:00.853Z,11.19
2023-09-23T01:53:29.529Z,11.20
2023-09-23T01:55:56.552Z,11.20
2023-09-23T01:58:23.901Z,11.19
2023-09-23T02:00:55.400Z,11.29
2023-09-23T02:03:24.142Z,11.31
2023-09-23T02:05:50.925Z,11.33
2023-09-23T02:08:17.556Z,11.34
2023-09-23T02:10:45.971Z,11.34
2023-09-23T02:13:12.415Z,11.33
2023-09-23T02:15:40.214Z,11.34
2023-09-23T02:18:07.772Z,11.37
2023-09-23T02:20:35.610Z,11.37
2023-09-23T02:23:02.210Z,11.43
2023-09-23T02:25:28.774Z,11.45
2023-09-23T02:27:56.981Z,11.48
2023-09-23T02:30:23.978Z,11.49
2023-09-23T02:32:50.565Z,11.38
2023-09-23T02:35:17.800Z,11.30
2023-09-23T02:37:46.410Z,11.24
2023-09-23T02:40:16.540Z,11.24
2023-09-23T02:42:48.012Z,11.31
2023-09-23T02:45:16.556Z,11.39
2023-09-23T02:47:45.289Z,11.51
2023-09-23T02:50:14.752Z,11.61
2023-09-23T02:52:42.520Z,11.71
2023-09-23T02:55:17.143Z,11.77
2023-09-23T02:57:47.944Z,11.79
2023-09-23T03:00:20.300Z,11.80
2023-09-23T03:02:51.569Z,11.83
2023-09-23T03:05:18.402Z,11.87
2023-09-23T03:07:49.725Z,11.89
2023-09-23T03:10:20.213Z,11.94
2023-09-23T03:12:58.053Z,11.94
2023-09-23T03:15:34.834Z,11.92
2023-09-23T03:18:02.191Z,11.95
2023-09-23T03:20:28.877Z,11.94
2023-09-23T03:22:56.896Z,11.90
2023-09-23T03:25:23.534Z,11.86
2023-09-23T03:27:52.376Z,11.85
2023-09-23T03:30:20.595Z,11.82
2023-09-23T03:32:47.840Z,11.77
2023-09-23T03:35:25.949Z,11.71
2023-09-23T03:37:53.129Z,11.63
2023-09-23T03:40:26.097Z,11.58
2023-09-23T03:42:52.740Z,11.54
2023-09-23T03:45:19.396Z,11.51
2023-09-23T03:47:47.666Z,11.47
2023-09-23T03:50:14.912Z,11.45
2023-09-23T03:52:42.615Z,11.43
2023-09-23T03:55:10.324Z,11.47
2023-09-23T03:57:36.867Z,11.56
2023-09-23T04:00:11.965Z,11.58
2023-09-23T04:02:38.809Z,11.60
2023-09-23T04:05:06.761Z,11.61
2023-09-23T04:07:33.747Z,11.62
2023-09-23T04:10:00.365Z,11.63
2023-09-23T04:12:26.951Z,11.61
2023-09-23T04:14:53.498Z,11.62
2023-09-23T04:17:20.142Z,11.63
2023-09-23T04:19:46.829Z,11.63
2023-09-23T04:22:13.399Z,11.60
2023-09-23T04:24:39.930Z,11.62
2023-09-23T04:27:06.590Z,11.66
2023-09-23T04:29:33.342Z,11.70
2023-09-23T04:32:00.272Z,11.79
2023-09-23T04:34:26.837Z,11.83
2023-09-23T04:36:54.044Z,11.84
2023-09-23T04:39:20.799Z,11.88
2023-09-23T04:41:47.334Z,11.90
2023-09-23T04:44:13.925Z,11.95
2023-09-23T04:46:40.581Z,11.96
2023-09-23T04:49:07.214Z,12.03
2023-09-23T04:51:34.112Z,12.10
2023-09-23T04:54:00.648Z,12.17
2023-09-23T04:56:27.221Z,12.20
2023-09-23T04:58:59.602Z,12.23
2023-09-23T05:01:26.220Z,12.24
2023-09-23T05:03:53.413Z,12.23
2023-09-23T05:06:20.035Z,12.24
2023-09-23T05:08:47.442Z,12.20
2023-09-23T05:11:14.251Z,12.19
2023-09-23T05:13:42.043Z,12.20
2023-09-23T05:16:08.667Z,12.17
2023-09-23T05:18:35.257Z,12.12
2023-09-23T05:21:01.804Z,12.14
2023-09-23T05:23:29.687Z,12.11
2023-09-23T05:25:59.135Z,12.11
2023-09-23T05:28:28.880Z,12.08
2023-09-23T05:30:55.554Z,12.05
2023-09-23T05:33:22.177Z,12.07
2023-09-23T05:35:48.837Z,12.13
2023-09-23T05:38:15.375Z,12.21
2023-09-23T05:40:42.216Z,12.27
2023-09-23T05:43:08.741Z,12.29
2023-09-23T05:45:36.847Z,12.31
2023-09-23T05:48:06.008Z,12.28
2023-09-23T05:50:32.991Z,12.29
2023-09-23T05:52:59.661Z,12.27
2023-09-23T05:55:26.229Z,12.24
2023-09-23T05:57:54.192Z,12.22
2023-09-23T06:00:20.817Z,12.21
2023-09-23T06:02:49.110Z,12.21
2023-09-23T06:05:16.146Z,12.24
2023-09-23T06:07:42.822Z,12.24
2023-09-23T06:10:12.350Z,12.24
2023-09-23T06:12:39.438Z,12.33
2023-09-23T06:15:06.444Z,12.41
2023-09-23T06:17:33.848Z,12.45
2023-09-23T06:20:01.961Z,12.48
2023-09-23T06:22:28.863Z,12.55
2023-09-23T06:24:55.895Z,12.56
2023-09-23T06:27:22.504Z,12.62
2023-09-23T06:29:49.132Z,12.67
2023-09-23T06:32:15.810Z,12.67
2023-09-23T06:34:42.414Z,12.66
2023-09-23T06:37:08.946Z,12.71
2023-09-23T06:39:35.454Z,12.73
2023-09-23T06:42:02.025Z,12.78
2023-09-23T06:44:28.899Z,12.83
2023-09-23T06:46:55.627Z,12.84
2023-09-23T06:49:22.284Z,12.86
2023-09-23T06:51:49.048Z,12.89
2023-09-23T06:54:15.566Z,12.93
2023-09-23T06:56:42.073Z,13.00
2023-09-23T06:59:09.148Z,13.07
2023-09-23T07:01:36.343Z,13.14
2023-09-23T07:04:03.493Z,13.14
2023-09-23T07:06:30.306Z,13.20
2023-09-23T07:08:56.947Z,13.25
2023-09-23T07:11:24.785Z,13.30
2023-09-23T07:13:51.508Z,13.37
2023-09-23T07:16:18.255Z,13.38
2023-09-23T07:18:45.996Z,13.51
2023-09-23T07:21:13.178Z,13.55
2023-09-23T07:23:39.864Z,13.69
2023-09-23T07:26:06.960Z,13.71
2023-09-23T07:28:33.654Z,13.80
2023-09-23T07:31:00.229Z,13.97
2023-09-23T07:33:26.760Z,14.02
2023-09-23T07:35:53.256Z,13.98
2023-09-23T07:38:19.819Z,14.05
2023-09-23T07:40:46.460Z,14.12
2023-09-23T07:43:13.024Z,14.16
2023-09-23T07:45:39.603Z,14.21
2023-09-23T07:48:06.585Z,14.29
2023-09-23T07:50:34.464Z,14.41
2023-09-23T07:53:01.167Z,14.53
2023-09-23T07:55:27.786Z,14.69
2023-09-23T07:57:54.323Z,14.60
2023-09-23T08:00:21.131Z,14.79
2023-09-23T08:02:47.726Z,14.92
2023-09-23T08:05:14.370Z,15.21
2023-09-23T08:07:40.919Z,15.65
2023-09-23T08:10:07.607Z,16.06
2023-09-23T08:12:35.440Z,16.34
2023-09-23T08:15:01.997Z,16.71
2023-09-23T08:17:28.992Z,17.02
2023-09-23T08:19:55.868Z,16.99
2023-09-23T08:22:22.579Z,17.29
2023-09-23T08:24:49.119Z,17.37
2023-09-23T08:27:15.678Z,17.16
2023-09-23T08:29:42.243Z,17.40
2023-09-23T08:32:08.813Z,17.51
2023-09-23T08:34:35.407Z,17.50
2023-09-23T08:37:02.153Z,17.48
2023-09-23T08:39:28.972Z,17.89
2023-09-23T08:41:56.983Z,17.68
2023-09-23T08:44:26.386Z,17.41
2023-09-23T08:46:53.974Z,17.27
2023-09-23T08:49:23.912Z,17.09
2023-09-23T08:51:57.283Z,17.01
2023-09-23T08:54:29.910Z,17.33
2023-09-23T08:56:57.303Z,17.17
2023-09-23T08:59:23.866Z,17.07
2023-09-23T09:01:50.582Z,17.43
2023-09-23T09:04:17.400Z,17.27
2023-09-23T09:06:51.073Z,16.75
2023-09-23T09:09:18.383Z,16.74
2023-09-23T09:11:48.909Z,17.10
2023-09-23T09:14:16.347Z,17.77
2023-09-23T09:16:43.137Z,18.53
2023-09-23T09:19:09.901Z,18.89
2023-09-23T09:21:36.812Z,19.44
2023-09-23T09:24:03.855Z,19.43
2023-09-23T09:26:31.270Z,19.27
2023-09-23T09:28:57.887Z,19.24
2023-09-23T09:31:32.794Z,18.82
2023-09-23T09:34:05.228Z,17.95
2023-09-23T09:36:35.339Z,17.61
2023-09-23T09:39:13.150Z,17.88
2023-09-23T09:41:52.005Z,17.48
2023-09-23T09:44:22.552Z,17.63
2023-09-23T09:46:51.559Z,18.14
2023-09-23T09:49:18.543Z,18.05
2023-09-23T09:51:50.202Z,17.97
2023-09-23T09:54:23.579Z,17.80
2023-09-23T09:56:52.233Z,17.77
2023-09-23T09:59:30.245Z,17.82
2023-09-23T10:01:58.285Z,17.85
2023-09-23T10:04:30.896Z,18.25
2023-09-23T10:06:57.773Z,18.63
2023-09-23T10:09:28.416Z,19.28
2023-09-23T10:11:56.077Z,18.95
2023-09-23T10:14:23.730Z,19.10
2023-09-23T10:16:51.662Z,18.56
2023-09-23T10:19:20.465Z,18.07
2023-09-23T10:21:48.422Z,17.73
2023-09-23T10:24:21.335Z,17.58
2023-09-23T10:26:48.008Z,17.48
2023-09-23T10:29:14.794Z,17.49
2023-09-23T10:31:41.881Z,17.48
2023-09-23T10:34:09.785Z,17.34
2023-09-23T10:36:37.684Z,16.97
2023-09-23T10:39:07.155Z,16.70
2023-09-23T10:41:36.117Z,16.11
2023-09-23T10:44:04.039Z,15.59
2023-09-23T10:46:31.614Z,15.14
2023-09-23T10:48:58.482Z,14.97
2023-09-23T10:51:25.322Z,14.76
2023-09-23T10:53:51.859Z,14.51
2023-09-23T10:56:22.357Z,14.27
2023-09-23T10:58:52.067Z,14.06
2023-09-23T11:01:20.055Z,14.06
2023-09-23T11:03:46.833Z,14.15
2023-09-23T11:06:16.997Z,14.27
2023-09-23T11:08:43.695Z,14.34
2023-09-23T11:11:12.848Z,14.46
2023-09-23T11:13:39.512Z,14.47
2023-09-23T11:16:12.098Z,14.39
2023-09-23T11:18:39.022Z,14.44
2023-09-23T11:21:06.261Z,14.41
2023-09-23T11:23:34.060Z,14.57
2023-09-23T11:26:01.016Z,14.71
2023-09-23T11:28:28.702Z,14.73
2023-09-23T11:33:53.520Z,14.73
2023-09-23T11:36:20.052Z,14.93
2023-09-23T11:38:46.751Z,15.17
2023-09-23T11:41:13.416Z,15.34
2023-09-23T11:43:39.990Z,15.46
2023-09-23T11:46:06.573Z,15.62
2023-09-23T11:48:33.255Z,15.78
2023-09-23T11:50:59.888Z,15.71
2023-09-23T11:53:26.503Z,15.95
2023-09-23T11:55:53.156Z,16.00
2023-09-23T11:58:20.851Z,16.20
2023-09-23T12:00:48.994Z,16.22
2023-09-23T12:03:19.606Z,16.51
2023-09-23T12:05:46.297Z,16.69
2023-09-23T12:08:12.948Z,16.82
2023-09-23T12:10:39.584Z,16.85
2023-09-23T12:13:08.079Z,17.01
2023-09-23T12:15:35.399Z,17.29
2023-09-23T12:18:02.299Z,17.35
2023-09-23T12:20:29.727Z,17.57
2023-09-23T12:22:58.738Z,17.94
2023-09-23T12:25:25.883Z,18.36
2023-09-23T12:27:52.484Z,18.87
2023-09-23T12:30:19.509Z,19.22
2023-09-23T12:32:46.939Z,19.80
2023-09-23T12:35:13.932Z,20.22
2023-09-23T12:37:40.810Z,19.77
2023-09-23T12:40:08.253Z,20.07
2023-09-23T12:42:35.147Z,20.09
2023-09-23T12:45:04.576Z,19.66
2023-09-23T12:47:48.967Z,19.92
2023-09-23T12:50:19.424Z,19.53
2023-09-23T12:52:46.102Z,19.26
2023-09-23T12:55:12.663Z,19.00
2023-09-23T12:57:39.329Z,19.48
2023-09-23T13:00:06.785Z,20.15
2023-09-23T13:02:33.478Z,19.98
2023-09-23T13:05:00.210Z,20.04
2023-09-23T13:07:26.870Z,19.75
2023-09-23T13:09:53.432Z,20.43
2023-09-23T13:12:19.956Z,20.41
2023-09-23T13:14:46.509Z,20.18
2023-09-23T13:17:13.054Z,19.71
2023-09-23T13:19:40.252Z,20.33
2023-09-23T13:22:06.770Z,20.47
2023-09-23T13:24:34.271Z,20.78
2023-09-23T13:27:00.899Z,20.55
2023-09-23T13:29:27.553Z,20.92
2023-09-23T13:31:54.077Z,20.58
2023-09-23T13:34:20.652Z,19.74
2023-09-23T13:36:47.174Z,19.42
2023-09-23T13:39:13.771Z,20.11
2023-09-23T13:41:40.376Z,20.77
2023-09-23T13:44:08.690Z,20.80
2023-09-23T13:46:35.735Z,20.19
2023-09-23T13:49:02.693Z,20.10
2023-09-23T13:51:29.257Z,20.23
2023-09-23T13:53:55.769Z,20.97
2023-09-23T13:56:22.446Z,20.88
2023-09-23T13:58:51.695Z,21.01
2023-09-23T14:01:19.560Z,21.01
2023-09-23T14:03:46.149Z,21.35
2023-09-23T14:06:12.747Z,21.88
2023-09-23T14:08:39.308Z,22.11
2023-09-23T14:11:06.409Z,22.13
2023-09-23T14:13:33.143Z,21.91
2023-09-23T14:15:59.669Z,21.97
2023-09-23T14:18:26.210Z,20.82
2023-09-23T14:20:53.297Z,20.80
2023-09-23T14:23:19.983Z,21.54
2023-09-23T14:25:46.769Z,21.55
2023-09-23T14:28:13.357Z,20.82
2023-09-23T14:30:39.995Z,19.95
2023-09-23T14:33:06.988Z,20.02
2023-09-23T14:35:33.608Z,19.86
2023-09-23T14:38:00.193Z,19.77
2023-09-23T14:40:28.363Z,19.31
2023-09-23T14:42:56.264Z,18.93
2023-09-23T14:45:23.586Z,18.26
2023-09-23T14:47:50.711Z,18.42
2023-09-23T14:50:17.439Z,18.46
2023-09-23T14:52:45.613Z,18.36
2023-09-23T14:55:12.551Z,18.22
2023-09-23T14:57:39.257Z,18.00
2023-09-23T15:00:06.593Z,18.21
2023-09-23T15:02:33.345Z,18.52
2023-09-23T15:05:00.198Z,19.26
2023-09-23T15:07:26.742Z,19.72
2023-09-23T15:09:53.737Z,19.69
2023-09-23T15:12:20.324Z,18.91
2023-09-23T15:14:47.624Z,18.84
2023-09-23T15:17:14.404Z,18.58
2023-09-23T15:19:41.156Z,18.85
2023-09-23T15:22:07.652Z,20.13
2023-09-23T15:24:34.446Z,20.91
2023-09-23T15:27:01.028Z,21.50
2023-09-23T15:29:28.456Z,21.58
2023-09-23T15:31:55.030Z,21.46
2023-09-23T15:34:23.610Z,21.40
2023-09-23T15:36:50.297Z,21.34
2023-09-23T15:39:16.847Z,21.40
2023-09-23T15:41:43.376Z,21.64
2023-09-23T15:44:10.584Z,21.85
2023-09-23T15:46:37.223Z,21.59
2023-09-23T15:49:04.038Z,21.59
2023-09-23T15:51:31.535Z,20.93
2023-09-23T15:53:58.830Z,21.28
2023-09-23T15:56:28.969Z,21.38
2023-09-23T15:58:55.722Z,21.29
2023-09-23T16:01:22.280Z,21.67
2023-09-23T16:03:48.984Z,22.02
2023-09-23T16:06:16.658Z,21.98
2023-09-23T16:08:43.246Z,21.76
2023-09-23T16:11:09.835Z,21.84
2023-09-23T16:13:36.421Z,21.89
2023-09-23T16:16:03.303Z,22.31
2023-09-23T16:18:30.012Z,22.51
2023-09-23T16:20:56.589Z,21.41
2023-09-23T16:23:23.191Z,20.10
2023-09-23T16:25:50.359Z,19.55
2023-09-23T16:28:16.967Z,19.01
2023-09-23T16:30:43.607Z,18.61
2023-09-23T16:33:10.401Z,18.51
2023-09-23T16:35:37.178Z,18.13
2023-09-23T16:38:03.767Z,18.08
2023-09-23T16:40:30.495Z,17.66
2023-09-23T16:42:57.250Z,17.66
2023-09-23T16:45:24.507Z,17.36
2023-09-23T16:47:51.181Z,17.27
2023-09-23T16:50:18.448Z,17.28
2023-09-23T16:52:45.097Z,17.03
2023-09-23T16:55:11.660Z,16.84
2023-09-23T16:57:38.369Z,16.65
2023-09-23T17:00:05.792Z,16.38
2023-09-23T17:02:32.455Z,16.29
2023-09-23T17:05:00.146Z,16.13
2023-09-23T17:07:27.049Z,16.16
2023-09-23T17:09:54.124Z,16.00
2023-09-23T17:12:20.675Z,15.91
2023-09-23T17:14:47.423Z,15.80
2023-09-23T17:17:14.126Z,15.78
2023-09-23T17:19:41.486Z,15.58
2023-09-23T17:22:10.223Z,15.60
2023-09-23T17:24:36.877Z,15.58
2023-09-23T17:27:04.310Z,15.52
2023-09-23T17:29:30.882Z,15.51
2023-09-23T17:31:57.531Z,15.42
2023-09-23T17:34:24.120Z,15.38
2023-09-23T17:36:50.712Z,15.34
2023-09-23T17:39:18.005Z,15.29
2023-09-23T17:41:44.602Z,15.31
2023-09-23T17:44:11.191Z,15.36
2023-09-23T17:46:37.919Z,15.28
2023-09-23T17:49:04.526Z,15.31
2023-09-23T17:51:31.116Z,15.33
2023-09-23T17:53:57.798Z,15.31
2023-09-23T17:56:28.368Z,15.22
2023-09-23T17:58:55.466Z,15.21
2023-09-23T18:01:22.060Z,15.16
2023-09-23T18:03:49.058Z,15.08
2023-09-23T18:06:16.686Z,14.96
2023-09-23T18:08:43.492Z,14.96
2023-09-23T18:11:13.792Z,14.87
2023-09-23T18:13:43.289Z,14.83
2023-09-23T18:16:09.933Z,14.72
2023-09-23T18:18:36.958Z,14.75
2023-09-23T18:21:03.832Z,14.75
2023-09-23T18:23:30.729Z,14.65
2023-09-23T18:25:57.528Z,14.61
2023-09-23T18:28:24.147Z,14.47
2023-09-23T18:30:50.676Z,14.48
2023-09-23T18:33:17.426Z,14.39
2023-09-23T18:35:44.178Z,14.31
2023-09-23T18:38:10.863Z,14.30
2023-09-23T18:40:37.512Z,14.28
2023-09-23T18:43:04.475Z,14.23
2023-09-23T18:45:31.081Z,14.19
2023-09-23T18:48:12.612Z,14.12
2023-09-23T18:50:46.145Z,14.11
2023-09-23T18:53:12.648Z,14.02
2023-09-23T18:55:39.217Z,14.01
2023-09-23T18:58:07.376Z,14.00
2023-09-23T19:00:36.541Z,13.98
2023-09-23T19:03:03.956Z,14.02
2023-09-23T19:05:31.018Z,13.97
2023-09-23T19:07:57.518Z,13.97
2023-09-23T19:10:24.283Z,13.95
2023-09-23T19:12:51.001Z,13.89
2023-09-23T19:15:17.830Z,13.92
2023-09-23T19:17:45.311Z,13.85
2023-09-23T19:20:12.125Z,13.82
2023-09-23T19:22:38.899Z,13.84
2023-09-23T19:25:06.652Z,13.88
2023-09-23T19:27:33.343Z,13.89
2023-09-23T19:29:59.918Z,13.86
2023-09-23T19:32:26.530Z,13.81
2023-09-23T19:34:53.176Z,13.86
2023-09-23T19:37:19.914Z,13.86
2023-09-23T19:39:46.490Z,13.89
2023-09-23T19:42:13.126Z,13.82
2023-09-23T19:44:39.714Z,13.84
2023-09-23T19:47:07.520Z,13.83
2023-09-23T19:49:35.766Z,13.79
2023-09-23T19:52:02.253Z,13.73
2023-09-23T19:54:28.755Z,13.73
2023-09-23T19:56:55.270Z,13.69
2023-09-23T19:59:22.037Z,13.64
2023-09-23T20:01:48.607Z,13.59
2023-09-23T20:04:15.324Z,13.55
2023-09-23T20:06:42.830Z,13.51
2023-09-23T20:09:10.163Z,13.51
2023-09-23T20:11:36.844Z,13.50
2023-09-23T20:14:03.663Z,13.45
2023-09-23T20:16:30.402Z,13.40
2023-09-23T20:18:58.907Z,13.36
2023-09-23T20:21:25.480Z,13.36
2023-09-23T20:23:52.727Z,13.33
2023-09-23T20:26:21.026Z,13.36
2023-09-23T20:28:47.913Z,13.37
2023-09-23T20:31:16.420Z,13.38
2023-09-23T20:33:43.966Z,13.41
2023-09-23T20:36:10.636Z,13.37
2023-09-23T20:38:38.639Z,13.36
2023-09-23T20:41:10.640Z,13.33
2023-09-23T20:43:38.718Z,13.31
2023-09-23T20:46:11.504Z,13.28
2023-09-23T20:48:38.191Z,13.23
2023-09-23T20:51:05.262Z,13.25
2023-09-23T20:53:35.758Z,13.20
2023-09-23T20:56:06.210Z,13.19
2023-09-23T20:58:34.235Z,13.16
2023-09-23T21:01:01.837Z,13.16
2023-09-23T21:03:28.575Z,13.11
2023-09-23T21:05:55.297Z,13.14
2023-09-23T21:08:21.885Z,13.13
2023-09-23T21:10:48.743Z,13.11
2023-09-23T21:13:15.277Z,13.10
2023-09-23T21:15:41.849Z,13.11
2023-09-23T21:18:10.158Z,12.99
2023-09-23T21:20:38.359Z,12.94
2023-09-23T21:23:05.204Z,12.91
2023-09-23T21:25:32.127Z,12.95
2023-09-23T21:27:58.804Z,13.01
2023-09-23T21:30:25.339Z,12.99
2023-09-23T21:32:51.994Z,13.02
2023-09-23T21:35:18.729Z,13.05
2023-09-23T21:37:45.263Z,13.05
2023-09-23T21:40:12.669Z,13.06
2023-09-23T21:42:39.195Z,13.05
2023-09-23T21:45:06.357Z,13.15
2023-09-23T21:47:32.927Z,13.17
2023-09-23T21:49:59.613Z,13.20
2023-09-23T21:52:26.253Z,13.28
2023-09-23T21:54:52.849Z,13.30
2023-09-23T21:57:19.456Z,13.30
2023-09-23T21:59:46.071Z,13.36
2023-09-23T22:02:12.636Z,13.36
2023-09-23T22:04:39.238Z,13.37
2023-09-23T22:07:06.114Z,13.43
2023-09-23T22:09:33.283Z,13.45
2023-09-23T22:11:59.926Z,13.49
2023-09-23T22:14:27.853Z,13.50
2023-09-23T22:16:55.785Z,13.44
2023-09-23T22:19:22.410Z,13.45
2023-09-23T22:21:49.128Z,13.42
2023-09-23T22:24:17.166Z,13.38
2023-09-23T22:26:43.759Z,13.38
2023-09-23T22:29:11.674Z,13.34
2023-09-23T22:31:38.766Z,13.28
2023-09-23T22:34:05.354Z,13.26
2023-09-23T22:36:33.895Z,13.22
2023-09-23T22:39:00.882Z,13.23
2023-09-23T22:41:29.695Z,13.22
2023-09-23T22:43:57.031Z,13.21
2023-09-23T22:46:24.769Z,13.20
2023-09-23T22:48:52.811Z,13.19
2023-09-23T22:51:20.797Z,13.20
2023-09-23T22:53:47.870Z,13.16
2023-09-23T22:56:14.638Z,13.11
2023-09-23T22:58:42.061Z,13.15
2023-09-23T23:01:13.481Z,13.14
2023-09-23T23:03:40.192Z,13.16
2023-09-23T23:06:07.911Z,13.11
2023-09-23T23:08:35.591Z,13.04
2023-09-23T23:11:08.031Z,13.02
2023-09-23T23:13:36.746Z,13.00
2023-09-23T23:16:07.973Z,13.01
2023-09-23T23:18:35.092Z,12.98
2023-09-23T23:21:03.614Z,12.97
2023-09-23T23:23:31.318Z,12.96
2023-09-23T23:26:00.338Z,12.94
2023-09-23T23:28:28.227Z,12.96
2023-09-23T23:30:55.264Z,12.96
2023-09-23T23:33:22.196Z,12.94
2023-09-23T23:35:48.873Z,12.91
2023-09-23T23:38:15.837Z,12.91
2023-09-23T23:40:42.707Z,12.91
2023-09-23T23:43:10.456Z,12.87
2023-09-23T23:45:37.114Z,12.78
2023-09-23T23:48:04.061Z,12.75
2023-09-23T23:50:31.498Z,12.73
2023-09-23T23:52:58.253Z,12.67
2023-09-23T23:55:27.474Z,12.66
2023-09-23T23:57:54.235Z,12.62
